Kerem Ka — TCWP5 — position and weather

sailwx.info

Track history (hours):
 
Tides and Currents Weather Stations Pressure Air Temp Water Temp Dewpoint Dewpoint Depression Visibility Wind Speed Wind Dir Waves Ship Positions

Kerem Ka

Last reported at 2018-Jul-20 05:48 UTC. Time now 2018-Jul-20 14:08 UTC.
Position N 40°12' E 013°16'.

Length 121 m; draft 6.6 m.

Type: Tanker. MMSI: 271040038.

Date/timePositionNaut miles runAvg speedWind from/ knotsBaromVisibWave heightAir tempDewpointWater temp
2018-Jul-20 05:48N 40°12' E 013°16'310.9
2018-Jul-20 05:29N 40°14' E 013°13'510.9
2018-Jul-20 05:00N 40°17' E 013°07'510.9
2018-Jul-20 04:31N 40°20' E 013°02'510.9
2018-Jul-20 04:01N 40°24' E 012°56'611.0
2018-Jul-20 03:30N 40°27' E 012°50'611.1
2018-Jul-20 03:00N 40°30' E 012°44'611.2
2018-Jul-20 02:31N 40°33' E 012°38'611.2
2018-Jul-20 02:01N 40°37' E 012°32'611.1
2018-Jul-20 01:30N 40°40' E 012°26'611.1
2018-Jul-20 00:59N 40°43' E 012°20'611.1
2018-Jul-20 00:28N 40°47' E 012°14'511.2
2018-Jul-20 00:00N 40°50' E 012°08'3511.2
2018-Jul-19 20:50N 41°10' E 011°30'810.9
2018-Jul-19 20:08N 41°15' E 011°22'0 1.3
2018-Jul-19 20:00N 41°15' E 011°22'3 5.5
2018-Jul-19 19:28N 41°17' E 011°19'510.6
2018-Jul-19 18:59N 41°20' E 011°13'510.6
2018-Jul-19 18:31N 41°23' E 011°08'1210.4
2018-Jul-19 17:20N 41°31' E 010°56'310.2
2018-Jul-19 17:00N 41°32' E 010°52'510.3
2018-Jul-19 16:30N 41°35' E 010°46'510.6
2018-Jul-19 16:00N 41°38' E 010°40'610.7
2018-Jul-19 15:28N 41°42' E 010°34'610.8
2018-Jul-19 14:56N 41°45' E 010°27'1010.7
2018-Jul-19 14:01N 41°51' E 010°17'510.3
2018-Jul-19 13:30N 41°54' E 010°11'510.1
2018-Jul-19 13:00N 41°56' E 010°05'510.0
2018-Jul-19 12:31N 41°59' E 009°60'510.2
2018-Jul-19 12:00N 42°03' E 009°55'1610.2
2018-Jul-19 10:29N 42°17' E 009°48'510.9
2018-Jul-19 10:01N 42°22' E 009°46'610.9
2018-Jul-19 09:30N 42°28' E 009°45'611.6
2018-Jul-19 09:00N 42°33' E 009°43'711.7
2018-Jul-19 08:25N 42°40' E 009°41'511.5
2018-Jul-19 08:00N 42°45' E 009°40'1911.3
2018-Jul-19 06:22N 43°03' E 009°34'1110.4
2018-Jul-19 05:20N 43°06' E 009°20'511.6
2018-Jul-19 04:53N 43°06' E 009°13'512.2
2018-Jul-19 04:29N 43°05' E 009°06'612.4
2018-Jul-19 04:01N 43°04' E 008°58'612.2
2018-Jul-19 03:30N 43°03' E 008°50'612.0
2018-Jul-19 03:01N 43°02' E 008°42'611.9
2018-Jul-19 02:30N 43°01' E 008°34'611.8
2018-Jul-19 02:01N 42°60' E 008°26'611.7
2018-Jul-19 01:30N 42°59' E 008°18'611.6
2018-Jul-19 01:00N 42°58' E 008°10'611.5
2018-Jul-19 00:30N 42°57' E 008°03'611.4
2018-Jul-19 00:00N 42°56' E 007°55'611.5
2018-Jul-18 23:30N 42°56' E 007°47'611.6
2018-Jul-18 23:00N 42°55' E 007°39'611.5
2018-Jul-18 22:31N 42°54' E 007°32'611.3
2018-Jul-18 22:01N 42°53' E 007°24'611.5
2018-Jul-18 21:30N 42°52' E 007°16'611.5
2018-Jul-18 21:01N 42°51' E 007°08'611.2
2018-Jul-18 20:30N 42°50' E 007°01'611.1
2018-Jul-18 20:00N 42°49' E 006°54'611.4
2018-Jul-18 19:31N 42°48' E 006°46'611.3
2018-Jul-18 19:00N 42°47' E 006°38'611.3
2018-Jul-18 18:29N 42°46' E 006°30'511.3
2018-Jul-18 18:00N 42°46' E 006°23'611.2
2018-Jul-18 17:30N 42°45' E 006°15'611.3
2018-Jul-18 17:00N 42°44' E 006°08'611.3
2018-Jul-18 16:31N 42°43' E 006°00'611.1
2018-Jul-18 16:00N 42°45' E 005°53'611.0
2018-Jul-18 15:29N 42°48' E 005°46'511.0
2018-Jul-18 15:00N 42°50' E 005°40'3810.5
2018-Jul-18 11:25N 43°14' E 005°00'910.0
2018-Jul-18 10:30N 43°23' E 004°58'1 2.4
2018-Jul-18 10:00N 43°24' E 004°60'0 0.0
2018-Jul-18 09:30N 43°24' E 004°60'0 0.0
2018-Jul-18 09:00N 43°24' E 004°60'0 0.0
2018-Jul-18 08:30N 43°24' E 004°60'0 0.0
2018-Jul-18 08:00N 43°24' E 004°60'0 0.0
2018-Jul-18 07:30N 43°24' E 004°60'0 0.0
2018-Jul-18 07:00N 43°24' E 004°60'0 0.0
2018-Jul-18 06:30N 43°24' E 004°60'0 0.0
2018-Jul-18 06:00N 43°24' E 004°60'0 0.0
2018-Jul-18 05:30N 43°24' E 004°60'0 0.0
2018-Jul-18 05:00N 43°24' E 004°60'0 0.0
2018-Jul-18 04:30N 43°24' E 004°60'0 0.0
2018-Jul-18 03:57N 43°24' E 004°60'0 0.0
2018-Jul-18 03:30N 43°24' E 004°60'0 0.0
2018-Jul-18 03:00N 43°24' E 004°60'0 0.0
2018-Jul-18 02:30N 43°24' E 004°60'0 0.0
2018-Jul-18 02:00N 43°24' E 004°60'0 0.0
2018-Jul-18 01:30N 43°24' E 004°60'0 0.0
2018-Jul-18 01:00N 43°24' E 004°60'0 0.0
2018-Jul-18 00:30N 43°24' E 004°60'0 0.0
2018-Jul-18 00:00N 43°24' E 004°60'0 0.0
2018-Jul-17 23:30N 43°24' E 004°60'0 0.0
2018-Jul-17 23:00N 43°24' E 004°60'0 0.0
2018-Jul-17 22:27N 43°24' E 004°60'0 0.0
2018-Jul-17 22:00N 43°24' E 004°60'0 0.0
2018-Jul-17 21:30N 43°24' E 004°60'0 0.0
2018-Jul-17 20:51N 43°24' E 004°60'0 0.0
2018-Jul-17 20:24N 43°24' E 004°60'0 0.0
2018-Jul-17 20:00N 43°24' E 004°60'0 0.0
2018-Jul-17 19:30N 43°24' E 004°60'0 0.0
2018-Jul-17 18:51N 43°24' E 004°60'0 0.0
2018-Jul-17 18:30N 43°24' E 004°60'0 0.0
2018-Jul-17 18:00N 43°24' E 004°60'0 0.0
2018-Jul-17 17:30N 43°24' E 004°60'0 0.0
2018-Jul-17 17:00N 43°24' E 004°60'0 0.0
2018-Jul-17 16:30N 43°24' E 004°60'0 0.0
2018-Jul-17 16:00N 43°24' E 004°60'0 0.0
2018-Jul-17 15:30N 43°24' E 004°60'0 0.0
2018-Jul-17 15:00N 43°24' E 004°60'0 0.0
2018-Jul-17 14:30N 43°24' E 004°60'0 0.0
2018-Jul-17 14:00N 43°24' E 004°60'0 0.0
2018-Jul-17 13:30N 43°24' E 004°60'0 0.0
2018-Jul-17 13:00N 43°24' E 004°60'0 0.0
2018-Jul-17 12:27N 43°24' E 004°60'0 0.0
2018-Jul-17 12:00N 43°24' E 004°60'0 0.0
2018-Jul-17 11:30N 43°24' E 004°60'0 0.0
2018-Jul-17 11:00N 43°24' E 004°60'0 0.0
2018-Jul-17 10:30N 43°24' E 004°60'0 0.0
2018-Jul-17 10:00N 43°24' E 004°60'0 0.0
2018-Jul-17 09:30N 43°24' E 004°60'0 0.0
2018-Jul-17 09:00N 43°24' E 004°60'0 0.0
2018-Jul-17 08:30N 43°24' E 004°60'0 0.0
2018-Jul-17 08:00N 43°24' E 004°60'0 0.0
2018-Jul-17 07:30N 43°24' E 004°60'0 0.0
2018-Jul-17 07:00N 43°24' E 004°60'0 0.0
2018-Jul-17 06:30N 43°24' E 004°60'0 0.0
2018-Jul-17 06:00N 43°24' E 004°60'0 0.0
2018-Jul-17 05:30N 43°24' E 004°60'0 0.0
2018-Jul-17 05:00N 43°24' E 004°60'0 0.0
2018-Jul-17 04:30N 43°24' E 004°60'0 0.0
2018-Jul-17 04:00N 43°24' E 004°60'0 0.0
2018-Jul-17 03:30N 43°24' E 004°60'0 0.0
2018-Jul-17 03:00N 43°24' E 004°60'0 0.4
2018-Jul-17 02:30N 43°24' E 004°59'2 3.9
2018-Jul-17 02:00N 43°22' E 004°59'4 8.7
2018-Jul-17 01:30N 43°18' E 005°00'168 6.4
2018-Jul-15 23:14N 41°11' E 002°31'1110.1
2018-Jul-15 22:10N 41°13' E 002°17'210.3
2018-Jul-15 22:01N 41°13' E 002°15'5 9.8
2018-Jul-15 21:30N 41°17' E 002°11'4 7.6
2018-Jul-15 21:00N 41°21' E 002°10'1 0.2
2018-Jul-15 16:50N 41°20' E 002°09'0 0.0
2018-Jul-15 14:47N 41°20' E 002°09'0 0.0
2018-Jul-15 14:23N 41°20' E 002°09'0 0.0
2018-Jul-15 13:20N 41°20' E 002°09'0 0.0
2018-Jul-15 12:56N 41°20' E 002°09'0 0.0
2018-Jul-15 12:23N 41°20' E 002°09'0 0.0
2018-Jul-15 11:56N 41°20' E 002°09'0 0.0
2018-Jul-15 05:17N 41°20' E 002°09'0 0.0
2018-Jul-15 04:59N 41°20' E 002°09'0 0.0
2018-Jul-15 02:17N 41°20' E 002°09'0 0.0
2018-Jul-15 01:11N 41°20' E 002°09'0 0.0
2018-Jul-15 00:41N 41°20' E 002°09'0 0.0
2018-Jul-15 00:29N 41°20' E 002°09'0 0.0
2018-Jul-14 23:59N 41°20' E 002°09'0 0.0
2018-Jul-14 23:29N 41°20' E 002°09'0 0.0
2018-Jul-14 21:15N 41°20' E 002°09'0 1.3
2018-Jul-14 20:59N 41°20' E 002°09'2 5.1
2018-Jul-14 20:30N 41°18' E 002°11'1 1.6
2018-Jul-14 19:59N 41°19' E 002°11'0 0.0
2018-Jul-14 19:29N 41°19' E 002°11'0 0.0
2018-Jul-14 18:59N 41°19' E 002°11'0 0.0
2018-Jul-14 18:29N 41°19' E 002°11'0 0.0
2018-Jul-14 17:59N 41°19' E 002°11'0 0.0
2018-Jul-14 17:29N 41°19' E 002°11'0 0.0
2018-Jul-14 16:59N 41°19' E 002°11'0 0.1
2018-Jul-14 16:29N 41°19' E 002°11'0 0.0
2018-Jul-14 15:59N 41°19' E 002°11'0 0.0
2018-Jul-14 15:29N 41°19' E 002°11'0 0.1
2018-Jul-14 14:59N 41°19' E 002°11'0 0.1
2018-Jul-14 14:29N 41°19' E 002°11'0 0.0
2018-Jul-14 13:29N 41°19' E 002°11'0 0.0
2018-Jul-14 12:59N 41°19' E 002°11'0 0.0
2018-Jul-14 12:29N 41°19' E 002°11'0 0.0
2018-Jul-14 11:59N 41°19' E 002°11'0 0.0
2018-Jul-14 11:26N 41°19' E 002°11'0 0.0
2018-Jul-14 10:59N 41°19' E 002°11'0 0.0
2018-Jul-14 10:29N 41°19' E 002°11'0 0.0
2018-Jul-14 09:59N 41°19' E 002°11'0 0.0
2018-Jul-14 09:29N 41°19' E 002°11'0 0.0
2018-Jul-14 08:59N 41°19' E 002°11'0 0.0
2018-Jul-14 08:29N 41°19' E 002°11'0 0.0
2018-Jul-14 07:59N 41°19' E 002°11'0 0.0
2018-Jul-14 07:29N 41°19' E 002°11'0 0.0
2018-Jul-14 06:59N 41°19' E 002°11'0 0.0
2018-Jul-14 06:29N 41°19' E 002°11'0 0.0
2018-Jul-14 05:59N 41°19' E 002°11'0 0.0
2018-Jul-14 05:29N 41°19' E 002°11'0 0.0
2018-Jul-14 04:59N 41°19' E 002°11'0 0.0
2018-Jul-14 04:29N 41°19' E 002°11'0 0.0
2018-Jul-14 03:59N 41°19' E 002°11'0 0.0
2018-Jul-14 03:29N 41°19' E 002°11'0 0.0
2018-Jul-14 02:59N 41°19' E 002°11'0 0.0
2018-Jul-14 02:29N 41°19' E 002°11'0 0.0
2018-Jul-14 01:59N 41°19' E 002°11'0 0.0
2018-Jul-14 01:29N 41°19' E 002°11'0 0.0
2018-Jul-14 00:59N 41°19' E 002°11'0 0.0
2018-Jul-14 00:29N 41°19' E 002°11'0 0.0
2018-Jul-13 23:59N 41°19' E 002°11'0 0.0
2018-Jul-13 23:29N 41°19' E 002°11'0 0.0
2018-Jul-13 22:59N 41°19' E 002°11'0 0.0
2018-Jul-13 22:29N 41°19' E 002°11'0 0.0
2018-Jul-13 21:58N 41°19' E 002°11'0 0.0
2018-Jul-13 21:28N 41°19' E 002°11'0 0.0
2018-Jul-13 20:58N 41°19' E 002°11'0 0.0
2018-Jul-13 20:28N 41°19' E 002°11'0 0.0
2018-Jul-13 19:59N 41°19' E 002°11'0 0.0
2018-Jul-13 19:29N 41°19' E 002°11'0 0.0
2018-Jul-13 18:59N 41°19' E 002°11'0 0.0
2018-Jul-13 18:29N 41°19' E 002°11'0 0.0
2018-Jul-13 17:59N 41°19' E 002°11'0 0.0
2018-Jul-13 17:28N 41°19' E 002°11'0 0.1
2018-Jul-13 16:58N 41°19' E 002°11'1 2.7
2018-Jul-13 16:31N 41°18' E 002°12'4 8.6
2018-Jul-13 16:01N 41°15' E 002°15'611.1
2018-Jul-13 15:30N 41°12' E 002°21'612.0
2018-Jul-13 15:00N 41°09' E 002°29'1312.0
2018-Jul-13 13:57N 41°03' E 002°43'10711.8
2018-Jul-13 04:53N 40°11' E 004°47'512.0
2018-Jul-13 04:28N 40°08' E 004°53'712.0
2018-Jul-13 03:53N 40°05' E 005°01'411.8
2018-Jul-13 03:30N 40°03' E 005°06'611.7
2018-Jul-13 02:58N 40°00' E 005°13'711.6
2018-Jul-13 02:23N 39°57' E 005°21'411.6
2018-Jul-13 02:00N 39°54' E 005°26'611.3
2018-Jul-13 01:30N 39°52' E 005°32'611.2
2018-Jul-13 01:00N 39°49' E 005°39'511.3
2018-Jul-13 00:30N 39°46' E 005°45'611.3
2018-Jul-13 00:00N 39°44' E 005°52'611.5
2018-Jul-12 23:30N 39°41' E 005°58'611.7
2018-Jul-12 23:01N 39°38' E 006°05'1011.8
2018-Jul-12 22:08N 39°33' E 006°16'2111.9
2018-Jul-12 20:21N 39°22' E 006°40'37110.7
2018-Jul-11 09:37N 36°51' E 013°52'311.0
2018-Jul-11 09:20N 36°50' E 013°55'410.8
2018-Jul-11 09:00N 36°48' E 013°59'510.7
2018-Jul-11 08:30N 36°46' E 014°05'510.4
2018-Jul-11 08:00N 36°44' E 014°11'510.2
2018-Jul-11 07:30N 36°42' E 014°17'510.2
2018-Jul-11 07:00N 36°40' E 014°23'510.0
2018-Jul-11 06:30N 36°38' E 014°28'610.1
2018-Jul-11 05:53N 36°37' E 014°36'410.8
2018-Jul-11 05:30N 36°37' E 014°41'  
Track history (hours):
 
Tides and Currents Weather Stations Pressure Air Temp Water Temp Dewpoint Dewpoint Depression Visibility Wind Speed Wind Dir Waves Ship Positions

Kerem Ka

Last reported at 2018-Jul-20 05:48 UTC. Time now 2018-Jul-20 14:08 UTC.
Position N 40°12' E 013°16'.

Length 121 m; draft 6.6 m.

Type: Tanker. MMSI: 271040038.

Date/timePositionNaut miles runAvg speedWind from/ knotsBaromVisibWave heightAir tempDewpointWater temp
2018-Jul-20 05:48N 40°12' E 013°16'310.9
2018-Jul-20 05:29N 40°14' E 013°13'510.9
2018-Jul-20 05:00N 40°17' E 013°07'510.9
2018-Jul-20 04:31N 40°20' E 013°02'510.9
2018-Jul-20 04:01N 40°24' E 012°56'611.0
2018-Jul-20 03:30N 40°27' E 012°50'611.1
2018-Jul-20 03:00N 40°30' E 012°44'611.2
2018-Jul-20 02:31N 40°33' E 012°38'611.2
2018-Jul-20 02:01N 40°37' E 012°32'611.1
2018-Jul-20 01:30N 40°40' E 012°26'611.1
2018-Jul-20 00:59N 40°43' E 012°20'611.1
2018-Jul-20 00:28N 40°47' E 012°14'511.2
2018-Jul-20 00:00N 40°50' E 012°08'3511.2
2018-Jul-19 20:50N 41°10' E 011°30'810.9
2018-Jul-19 20:08N 41°15' E 011°22'0 1.3
2018-Jul-19 20:00N 41°15' E 011°22'3 5.5
2018-Jul-19 19:28N 41°17' E 011°19'510.6
2018-Jul-19 18:59N 41°20' E 011°13'510.6
2018-Jul-19 18:31N 41°23' E 011°08'1210.4
2018-Jul-19 17:20N 41°31' E 010°56'310.2
2018-Jul-19 17:00N 41°32' E 010°52'510.3
2018-Jul-19 16:30N 41°35' E 010°46'510.6
2018-Jul-19 16:00N 41°38' E 010°40'610.7
2018-Jul-19 15:28N 41°42' E 010°34'610.8
2018-Jul-19 14:56N 41°45' E 010°27'1010.7
2018-Jul-19 14:01N 41°51' E 010°17'510.3
2018-Jul-19 13:30N 41°54' E 010°11'510.1
2018-Jul-19 13:00N 41°56' E 010°05'510.0
2018-Jul-19 12:31N 41°59' E 009°60'510.2
2018-Jul-19 12:00N 42°03' E 009°55'1610.2
2018-Jul-19 10:29N 42°17' E 009°48'510.9
2018-Jul-19 10:01N 42°22' E 009°46'610.9
2018-Jul-19 09:30N 42°28' E 009°45'611.6
2018-Jul-19 09:00N 42°33' E 009°43'711.7
2018-Jul-19 08:25N 42°40' E 009°41'511.5
2018-Jul-19 08:00N 42°45' E 009°40'1911.3
2018-Jul-19 06:22N 43°03' E 009°34'1110.4
2018-Jul-19 05:20N 43°06' E 009°20'511.6
2018-Jul-19 04:53N 43°06' E 009°13'512.2
2018-Jul-19 04:29N 43°05' E 009°06'612.4
2018-Jul-19 04:01N 43°04' E 008°58'612.2
2018-Jul-19 03:30N 43°03' E 008°50'612.0
2018-Jul-19 03:01N 43°02' E 008°42'611.9
2018-Jul-19 02:30N 43°01' E 008°34'611.8
2018-Jul-19 02:01N 42°60' E 008°26'611.7
2018-Jul-19 01:30N 42°59' E 008°18'611.6
2018-Jul-19 01:00N 42°58' E 008°10'611.5
2018-Jul-19 00:30N 42°57' E 008°03'611.4
2018-Jul-19 00:00N 42°56' E 007°55'611.5
2018-Jul-18 23:30N 42°56' E 007°47'611.6
2018-Jul-18 23:00N 42°55' E 007°39'611.5
2018-Jul-18 22:31N 42°54' E 007°32'611.3
2018-Jul-18 22:01N 42°53' E 007°24'611.5
2018-Jul-18 21:30N 42°52' E 007°16'611.5
2018-Jul-18 21:01N 42°51' E 007°08'611.2
2018-Jul-18 20:30N 42°50' E 007°01'611.1
2018-Jul-18 20:00N 42°49' E 006°54'611.4
2018-Jul-18 19:31N 42°48' E 006°46'611.3
2018-Jul-18 19:00N 42°47' E 006°38'611.3
2018-Jul-18 18:29N 42°46' E 006°30'511.3
2018-Jul-18 18:00N 42°46' E 006°23'611.2
2018-Jul-18 17:30N 42°45' E 006°15'611.3
2018-Jul-18 17:00N 42°44' E 006°08'611.3
2018-Jul-18 16:31N 42°43' E 006°00'611.1
2018-Jul-18 16:00N 42°45' E 005°53'611.0
2018-Jul-18 15:29N 42°48' E 005°46'511.0
2018-Jul-18 15:00N 42°50' E 005°40'3810.5
2018-Jul-18 11:25N 43°14' E 005°00'910.0
2018-Jul-18 10:30N 43°23' E 004°58'1 2.4
2018-Jul-18 10:00N 43°24' E 004°60'0 0.0
2018-Jul-18 09:30N 43°24' E 004°60'0 0.0
2018-Jul-18 09:00N 43°24' E 004°60'0 0.0
2018-Jul-18 08:30N 43°24' E 004°60'0 0.0
2018-Jul-18 08:00N 43°24' E 004°60'0 0.0
2018-Jul-18 07:30N 43°24' E 004°60'0 0.0
2018-Jul-18 07:00N 43°24' E 004°60'0 0.0
2018-Jul-18 06:30N 43°24' E 004°60'0 0.0
2018-Jul-18 06:00N 43°24' E 004°60'0 0.0
2018-Jul-18 05:30N 43°24' E 004°60'0 0.0
2018-Jul-18 05:00N 43°24' E 004°60'0 0.0
2018-Jul-18 04:30N 43°24' E 004°60'0 0.0
2018-Jul-18 03:57N 43°24' E 004°60'0 0.0
2018-Jul-18 03:30N 43°24' E 004°60'0 0.0
2018-Jul-18 03:00N 43°24' E 004°60'0 0.0
2018-Jul-18 02:30N 43°24' E 004°60'0 0.0
2018-Jul-18 02:00N 43°24' E 004°60'0 0.0
2018-Jul-18 01:30N 43°24' E 004°60'0 0.0
2018-Jul-18 01:00N 43°24' E 004°60'0 0.0
2018-Jul-18 00:30N 43°24' E 004°60'0 0.0
2018-Jul-18 00:00N 43°24' E 004°60'0 0.0
2018-Jul-17 23:30N 43°24' E 004°60'0 0.0
2018-Jul-17 23:00N 43°24' E 004°60'0 0.0
2018-Jul-17 22:27N 43°24' E 004°60'0 0.0
2018-Jul-17 22:00N 43°24' E 004°60'0 0.0
2018-Jul-17 21:30N 43°24' E 004°60'0 0.0
2018-Jul-17 20:51N 43°24' E 004°60'0 0.0
2018-Jul-17 20:24N 43°24' E 004°60'0 0.0
2018-Jul-17 20:00N 43°24' E 004°60'0 0.0
2018-Jul-17 19:30N 43°24' E 004°60'0 0.0
2018-Jul-17 18:51N 43°24' E 004°60'0 0.0
2018-Jul-17 18:30N 43°24' E 004°60'0 0.0
2018-Jul-17 18:00N 43°24' E 004°60'0 0.0
2018-Jul-17 17:30N 43°24' E 004°60'0 0.0
2018-Jul-17 17:00N 43°24' E 004°60'0 0.0
2018-Jul-17 16:30N 43°24' E 004°60'0 0.0
2018-Jul-17 16:00N 43°24' E 004°60'0 0.0
2018-Jul-17 15:30N 43°24' E 004°60'0 0.0
2018-Jul-17 15:00N 43°24' E 004°60'0 0.0
2018-Jul-17 14:30N 43°24' E 004°60'0 0.0
2018-Jul-17 14:00N 43°24' E 004°60'0 0.0
2018-Jul-17 13:30N 43°24' E 004°60'0 0.0
2018-Jul-17 13:00N 43°24' E 004°60'0 0.0
2018-Jul-17 12:27N 43°24' E 004°60'0 0.0
2018-Jul-17 12:00N 43°24' E 004°60'0 0.0
2018-Jul-17 11:30N 43°24' E 004°60'0 0.0
2018-Jul-17 11:00N 43°24' E 004°60'0 0.0
2018-Jul-17 10:30N 43°24' E 004°60'0 0.0
2018-Jul-17 10:00N 43°24' E 004°60'0 0.0
2018-Jul-17 09:30N 43°24' E 004°60'0 0.0
2018-Jul-17 09:00N 43°24' E 004°60'0 0.0
2018-Jul-17 08:30N 43°24' E 004°60'0 0.0
2018-Jul-17 08:00N 43°24' E 004°60'0 0.0
2018-Jul-17 07:30N 43°24' E 004°60'0 0.0
2018-Jul-17 07:00N 43°24' E 004°60'0 0.0
2018-Jul-17 06:30N 43°24' E 004°60'0 0.0
2018-Jul-17 06:00N 43°24' E 004°60'0 0.0
2018-Jul-17 05:30N 43°24' E 004°60'0 0.0
2018-Jul-17 05:00N 43°24' E 004°60'0 0.0
2018-Jul-17 04:30N 43°24' E 004°60'0 0.0
2018-Jul-17 04:00N 43°24' E 004°60'0 0.0
2018-Jul-17 03:30N 43°24' E 004°60'0 0.0
2018-Jul-17 03:00N 43°24' E 004°60'0 0.4
2018-Jul-17 02:30N 43°24' E 004°59'2 3.9
2018-Jul-17 02:00N 43°22' E 004°59'4 8.7
2018-Jul-17 01:30N 43°18' E 005°00'168 6.4
2018-Jul-15 23:14N 41°11' E 002°31'1110.1
2018-Jul-15 22:10N 41°13' E 002°17'210.3
2018-Jul-15 22:01N 41°13' E 002°15'5 9.8
2018-Jul-15 21:30N 41°17' E 002°11'4 7.6
2018-Jul-15 21:00N 41°21' E 002°10'1 0.2
2018-Jul-15 16:50N 41°20' E 002°09'0 0.0
2018-Jul-15 14:47N 41°20' E 002°09'0 0.0
2018-Jul-15 14:23N 41°20' E 002°09'0 0.0
2018-Jul-15 13:20N 41°20' E 002°09'0 0.0
2018-Jul-15 12:56N 41°20' E 002°09'0 0.0
2018-Jul-15 12:23N 41°20' E 002°09'0 0.0
2018-Jul-15 11:56N 41°20' E 002°09'0 0.0
2018-Jul-15 05:17N 41°20' E 002°09'0 0.0
2018-Jul-15 04:59N 41°20' E 002°09'0 0.0
2018-Jul-15 02:17N 41°20' E 002°09'0 0.0
2018-Jul-15 01:11N 41°20' E 002°09'0 0.0
2018-Jul-15 00:41N 41°20' E 002°09'0 0.0
2018-Jul-15 00:29N 41°20' E 002°09'0 0.0
2018-Jul-14 23:59N 41°20' E 002°09'0 0.0
2018-Jul-14 23:29N 41°20' E 002°09'0 0.0
2018-Jul-14 21:15N 41°20' E 002°09'0 1.3
2018-Jul-14 20:59N 41°20' E 002°09'2 5.1
2018-Jul-14 20:30N 41°18' E 002°11'1 1.6
2018-Jul-14 19:59N 41°19' E 002°11'0 0.0
2018-Jul-14 19:29N 41°19' E 002°11'0 0.0
2018-Jul-14 18:59N 41°19' E 002°11'0 0.0
2018-Jul-14 18:29N 41°19' E 002°11'0 0.0
2018-Jul-14 17:59N 41°19' E 002°11'0 0.0
2018-Jul-14 17:29N 41°19' E 002°11'0 0.0
2018-Jul-14 16:59N 41°19' E 002°11'0 0.1
2018-Jul-14 16:29N 41°19' E 002°11'0 0.0
2018-Jul-14 15:59N 41°19' E 002°11'0 0.0
2018-Jul-14 15:29N 41°19' E 002°11'0 0.1
2018-Jul-14 14:59N 41°19' E 002°11'0 0.1
2018-Jul-14 14:29N 41°19' E 002°11'0 0.0
2018-Jul-14 13:29N 41°19' E 002°11'0 0.0
2018-Jul-14 12:59N 41°19' E 002°11'0 0.0
2018-Jul-14 12:29N 41°19' E 002°11'0 0.0
2018-Jul-14 11:59N 41°19' E 002°11'0 0.0
2018-Jul-14 11:26N 41°19' E 002°11'0 0.0
2018-Jul-14 10:59N 41°19' E 002°11'0 0.0
2018-Jul-14 10:29N 41°19' E 002°11'0 0.0
2018-Jul-14 09:59N 41°19' E 002°11'0 0.0
2018-Jul-14 09:29N 41°19' E 002°11'0 0.0
2018-Jul-14 08:59N 41°19' E 002°11'0 0.0
2018-Jul-14 08:29N 41°19' E 002°11'0 0.0
2018-Jul-14 07:59N 41°19' E 002°11'0 0.0
2018-Jul-14 07:29N 41°19' E 002°11'0 0.0
2018-Jul-14 06:59N 41°19' E 002°11'0 0.0
2018-Jul-14 06:29N 41°19' E 002°11'0 0.0
2018-Jul-14 05:59N 41°19' E 002°11'0 0.0
2018-Jul-14 05:29N 41°19' E 002°11'0 0.0
2018-Jul-14 04:59N 41°19' E 002°11'0 0.0
2018-Jul-14 04:29N 41°19' E 002°11'0 0.0
2018-Jul-14 03:59N 41°19' E 002°11'0 0.0
2018-Jul-14 03:29N 41°19' E 002°11'0 0.0
2018-Jul-14 02:59N 41°19' E 002°11'0 0.0
2018-Jul-14 02:29N 41°19' E 002°11'0 0.0
2018-Jul-14 01:59N 41°19' E 002°11'0 0.0
2018-Jul-14 01:29N 41°19' E 002°11'0 0.0
2018-Jul-14 00:59N 41°19' E 002°11'0 0.0
2018-Jul-14 00:29N 41°19' E 002°11'0 0.0
2018-Jul-13 23:59N 41°19' E 002°11'0 0.0
2018-Jul-13 23:29N 41°19' E 002°11'0 0.0
2018-Jul-13 22:59N 41°19' E 002°11'0 0.0
2018-Jul-13 22:29N 41°19' E 002°11'0 0.0
2018-Jul-13 21:58N 41°19' E 002°11'0 0.0
2018-Jul-13 21:28N 41°19' E 002°11'0 0.0
2018-Jul-13 20:58N 41°19' E 002°11'0 0.0
2018-Jul-13 20:28N 41°19' E 002°11'0 0.0
2018-Jul-13 19:59N 41°19' E 002°11'0 0.0
2018-Jul-13 19:29N 41°19' E 002°11'0 0.0
2018-Jul-13 18:59N 41°19' E 002°11'0 0.0
2018-Jul-13 18:29N 41°19' E 002°11'0 0.0
2018-Jul-13 17:59N 41°19' E 002°11'0 0.0
2018-Jul-13 17:28N 41°19' E 002°11'0 0.1
2018-Jul-13 16:58N 41°19' E 002°11'1 2.7
2018-Jul-13 16:31N 41°18' E 002°12'4 8.6
2018-Jul-13 16:01N 41°15' E 002°15'611.1
2018-Jul-13 15:30N 41°12' E 002°21'612.0
2018-Jul-13 15:00N 41°09' E 002°29'1312.0
2018-Jul-13 13:57N 41°03' E 002°43'10711.8
2018-Jul-13 04:53N 40°11' E 004°47'512.0
2018-Jul-13 04:28N 40°08' E 004°53'712.0
2018-Jul-13 03:53N 40°05' E 005°01'411.8
2018-Jul-13 03:30N 40°03' E 005°06'611.7
2018-Jul-13 02:58N 40°00' E 005°13'711.6
2018-Jul-13 02:23N 39°57' E 005°21'411.6
2018-Jul-13 02:00N 39°54' E 005°26'611.3
2018-Jul-13 01:30N 39°52' E 005°32'611.2
2018-Jul-13 01:00N 39°49' E 005°39'511.3
2018-Jul-13 00:30N 39°46' E 005°45'611.3
2018-Jul-13 00:00N 39°44' E 005°52'611.5
2018-Jul-12 23:30N 39°41' E 005°58'611.7
2018-Jul-12 23:01N 39°38' E 006°05'1011.8
2018-Jul-12 22:08N 39°33' E 006°16'2111.9
2018-Jul-12 20:21N 39°22' E 006°40'37110.7
2018-Jul-11 09:37N 36°51' E 013°52'311.0
2018-Jul-11 09:20N 36°50' E 013°55'410.8
2018-Jul-11 09:00N 36°48' E 013°59'510.7
2018-Jul-11 08:30N 36°46' E 014°05'510.4
2018-Jul-11 08:00N 36°44' E 014°11'510.2
2018-Jul-11 07:30N 36°42' E 014°17'510.2
2018-Jul-11 07:00N 36°40' E 014°23'510.0
2018-Jul-11 06:30N 36°38' E 014°28'610.1
2018-Jul-11 05:53N 36°37' E 014°36'410.8
2018-Jul-11 05:30N 36°37' E 014°41'  

Dump ship's entire track history